sensor_id;sensor_type;location;lat;lon;timestamp;pressure;altitude;pressure_sealevel;temperature;humidity
36748;BME280;22716;51.556;5.080;2023-04-25T00:00:08;100429.84;;;7.47;100.00
36748;BME280;22716;51.556;5.080;2023-04-25T00:02:37;100442.00;;;7.46;100.00
36748;BME280;22716;51.556;5.080;2023-04-25T00:05:07;100440.28;;;7.44;100.00
36748;BME280;22716;51.556;5.080;2023-04-25T00:07:36;100430.75;;;7.41;100.00
36748;BME280;22716;51.556;5.080;2023-04-25T00:10:09;100438.56;;;7.43;100.00
36748;BME280;22716;51.556;5.080;2023-04-25T00:12:39;100429.88;;;7.41;100.00
36748;BME280;22716;51.556;5.080;2023-04-25T00:15:09;100435.97;;;7.40;100.00
36748;BME280;22716;51.556;5.080;2023-04-25T00:17:38;100432.50;;;7.38;100.00
36748;BME280;22716;51.556;5.080;2023-04-25T00:20:09;100436.81;;;7.37;100.00
36748;BME280;22716;51.556;5.080;2023-04-25T00:22:38;100424.72;;;7.27;100.00
36748;BME280;22716;51.556;5.080;2023-04-25T00:25:10;100440.31;;;7.34;100.00
36748;BME280;22716;51.556;5.080;2023-04-25T00:27:38;100429.03;;;7.32;100.00
36748;BME280;22716;51.556;5.080;2023-04-25T00:30:09;100437.72;;;7.36;100.00
36748;BME280;22716;51.556;5.080;2023-04-25T00:32:38;100437.69;;;7.38;100.00
36748;BME280;22716;51.556;5.080;2023-04-25T00:35:08;100434.22;;;7.37;100.00
36748;BME280;22716;51.556;5.080;2023-04-25T00:37:37;100441.22;;;7.33;100.00
36748;BME280;22716;51.556;5.080;2023-04-25T00:40:10;100437.72;;;7.28;100.00
36748;BME280;22716;51.556;5.080;2023-04-25T00:42:39;100441.22;;;7.23;100.00
36748;BME280;22716;51.556;5.080;2023-04-25T00:45:13;100443.88;;;7.18;100.00
36748;BME280;22716;51.556;5.080;2023-04-25T00:47:42;100443.88;;;7.15;100.00
36748;BME280;22716;51.556;5.080;2023-04-25T00:50:12;100448.19;;;7.13;100.00
36748;BME280;22716;51.556;5.080;2023-04-25T00:52:43;100449.06;;;7.14;100.00
36748;BME280;22716;51.556;5.080;2023-04-25T00:55:15;100449.94;;;7.14;100.00
36748;BME280;22716;51.556;5.080;2023-04-25T00:57:44;100438.66;;;7.14;100.00
36748;BME280;22716;51.556;5.080;2023-04-25T01:00:14;100444.72;;;7.14;100.00
36748;BME280;22716;51.556;5.080;2023-04-25T01:02:44;100423.03;;;7.08;100.00
36748;BME280;22716;51.556;5.080;2023-04-25T01:05:13;100441.25;;;7.14;100.00
36748;BME280;22716;51.556;5.080;2023-04-25T01:07:44;100441.28;;;7.12;100.00
36748;BME280;22716;51.556;5.080;2023-04-25T01:10:16;100441.25;;;7.11;100.00
36748;BME280;22716;51.556;5.080;2023-04-25T01:12:45;100441.28;;;7.09;100.00
36748;BME280;22716;51.556;5.080;2023-04-25T01:15:13;100447.34;;;7.08;100.00
36748;BME280;22716;51.556;5.080;2023-04-25T01:17:42;100450.84;;;7.07;100.00
36748;BME280;22716;51.556;5.080;2023-04-25T01:20:14;100449.97;;;7.02;100.00
36748;BME280;22716;51.556;5.080;2023-04-25T01:22:45;100441.34;;;6.93;100.00
36748;BME280;22716;51.556;5.080;2023-04-25T01:25:14;100446.53;;;6.94;100.00
36748;BME280;22716;51.556;5.080;2023-04-25T01:27:43;100456.09;;;6.92;100.00
36748;BME280;22716;51.556;5.080;2023-04-25T01:30:13;100443.06;;;6.86;100.00
36748;BME280;22716;51.556;5.080;2023-04-25T01:32:43;100447.41;;;6.86;100.00
36748;BME280;22716;51.556;5.080;2023-04-25T01:35:12;100453.47;;;6.85;100.00
36748;BME280;22716;51.556;5.080;2023-04-25T01:37:41;100454.38;;;6.90;100.00
36748;BME280;22716;51.556;5.080;2023-04-25T01:40:13;100455.22;;;6.89;100.00
36748;BME280;22716;51.556;5.080;2023-04-25T01:42:43;100462.16;;;6.88;100.00
36748;BME280;22716;51.556;5.080;2023-04-25T01:45:12;100449.16;;;6.87;100.00
36748;BME280;22716;51.556;5.080;2023-04-25T01:47:41;100450.00;;;6.87;100.00
36748;BME280;22716;51.556;5.080;2023-04-25T01:50:15;100460.41;;;6.90;100.00
36748;BME280;22716;51.556;5.080;2023-04-25T01:52:44;100460.44;;;6.92;100.00
36748;BME280;22716;51.556;5.080;2023-04-25T01:55:16;100458.69;;;6.91;100.00
36748;BME280;22716;51.556;5.080;2023-04-25T01:57:45;100460.41;;;6.87;100.00
36748;BME280;22716;51.556;5.080;2023-04-25T02:00:14;100466.53;;;6.83;100.00
36748;BME280;22716;51.556;5.080;2023-04-25T02:02:42;100465.63;;;6.84;100.00
36748;BME280;22716;51.556;5.080;2023-04-25T02:05:11;100471.72;;;6.83;100.00
36748;BME280;22716;51.556;5.080;2023-04-25T02:07:40;100478.69;;;6.78;100.00
36748;BME280;22716;51.556;5.080;2023-04-25T02:10:09;100479.53;;;6.74;100.00
36748;BME280;22716;51.556;5.080;2023-04-25T02:12:41;100476.94;;;6.77;100.00
36748;BME280;22716;51.556;5.080;2023-04-25T02:15:10;100483.91;;;6.72;100.00
36748;BME280;22716;51.556;5.080;2023-04-25T02:17:39;100487.34;;;6.77;100.00
36748;BME280;22716;51.556;5.080;2023-04-25T02:20:09;100482.16;;;6.77;100.00
36748;BME280;22716;51.556;5.080;2023-04-25T02:22:38;100482.13;;;6.69;100.00
36748;BME280;22716;51.556;5.080;2023-04-25T02:25:09;100483.03;;;6.74;100.00
36748;BME280;22716;51.556;5.080;2023-04-25T02:27:43;100480.41;;;6.68;100.00
36748;BME280;22716;51.556;5.080;2023-04-25T02:30:12;100489.97;;;6.71;100.00
36748;BME280;22716;51.556;5.080;2023-04-25T02:32:41;100468.28;;;6.63;100.00
36748;BME280;22716;51.556;5.080;2023-04-25T02:35:10;100465.66;;;6.58;100.00
36748;BME280;22716;51.556;5.080;2023-04-25T02:37:39;100487.34;;;6.71;100.00
36748;BME280;22716;51.556;5.080;2023-04-25T02:40:09;100487.34;;;6.69;100.00
36748;BME280;22716;51.556;5.080;2023-04-25T02:42:39;100489.09;;;6.78;100.00
36748;BME280;22716;51.556;5.080;2023-04-25T02:45:11;100493.41;;;6.76;100.00
36748;BME280;22716;51.556;5.080;2023-04-25T02:47:40;100489.09;;;6.73;100.00
36748;BME280;22716;51.556;5.080;2023-04-25T02:50:09;100488.22;;;6.70;100.00
36748;BME280;22716;51.556;5.080;2023-04-25T02:52:38;100485.63;;;6.65;100.00
36748;BME280;22716;51.556;5.080;2023-04-25T02:55:08;100488.22;;;6.65;100.00
36748;BME280;22716;51.556;5.080;2023-04-25T02:57:37;100492.53;;;6.63;100.00
36748;BME280;22716;51.556;5.080;2023-04-25T03:00:10;100493.44;;;6.62;100.00
36748;BME280;22716;51.556;5.080;2023-04-25T03:02:40;100490.81;;;6.64;100.00
36748;BME280;22716;51.556;5.080;2023-04-25T03:05:08;100483.00;;;6.64;100.00
36748;BME280;22716;51.556;5.080;2023-04-25T03:07:37;100477.78;;;6.64;100.00
36748;BME280;22716;51.556;5.080;2023-04-25T03:10:10;100482.16;;;6.68;100.00
36748;BME280;22716;51.556;5.080;2023-04-25T03:12:39;100483.88;;;6.67;100.00
36748;BME280;22716;51.556;5.080;2023-04-25T03:15:10;100483.88;;;6.70;100.00
36748;BME280;22716;51.556;5.080;2023-04-25T03:17:39;100490.84;;;6.71;100.00
36748;BME280;22716;51.556;5.080;2023-04-25T03:20:10;100493.44;;;6.71;100.00
36748;BME280;22716;51.556;5.080;2023-04-25T03:22:39;100496.03;;;6.71;100.00
36748;BME280;22716;51.556;5.080;2023-04-25T03:25:08;100487.34;;;6.68;100.00
36748;BME280;22716;51.556;5.080;2023-04-25T03:27:37;100490.81;;;6.70;100.00
36748;BME280;22716;51.556;5.080;2023-04-25T03:30:07;100493.44;;;6.68;100.00
36748;BME280;22716;51.556;5.080;2023-04-25T03:32:39;100487.34;;;6.68;100.00
36748;BME280;22716;51.556;5.080;2023-04-25T03:35:08;100485.63;;;6.65;100.00
36748;BME280;22716;51.556;5.080;2023-04-25T03:37:37;100485.59;;;6.64;100.00
36748;BME280;22716;51.556;5.080;2023-04-25T03:40:07;100496.91;;;6.64;100.00
36748;BME280;22716;51.556;5.080;2023-04-25T03:42:36;100499.50;;;6.64;100.00
36748;BME280;22716;51.556;5.080;2023-04-25T03:45:07;100492.56;;;6.62;100.00
36748;BME280;22716;51.556;5.080;2023-04-25T03:47:39;100502.09;;;6.67;100.00
36748;BME280;22716;51.556;5.080;2023-04-25T03:50:09;100503.81;;;6.67;100.00
36748;BME280;22716;51.556;5.080;2023-04-25T03:52:38;100496.03;;;6.64;100.00
36748;BME280;22716;51.556;5.080;2023-04-25T03:55:08;100498.63;;;6.67;100.00
36748;BME280;22716;51.556;5.080;2023-04-25T03:57:37;100500.38;;;6.65;100.00
36748;BME280;22716;51.556;5.080;2023-04-25T04:00:07;100509.94;;;6.66;100.00
36748;BME280;22716;51.556;5.080;2023-04-25T04:02:39;100514.25;;;6.65;100.00
36748;BME280;22716;51.556;5.080;2023-04-25T04:05:08;100517.72;;;6.67;100.00
36748;BME280;22716;51.556;5.080;2023-04-25T04:07:36;100524.66;;;6.67;100.00
36748;BME280;22716;51.556;5.080;2023-04-25T04:10:06;100516.00;;;6.65;100.00
36748;BME280;22716;51.556;5.080;2023-04-25T04:12:35;100512.53;;;6.63;100.00
36748;BME280;22716;51.556;5.080;2023-04-25T04:15:06;100517.72;;;6.58;100.00
36748;BME280;22716;51.556;5.080;2023-04-25T04:17:35;100517.72;;;6.57;100.00
36748;BME280;22716;51.556;5.080;2023-04-25T04:20:08;100522.91;;;6.61;100.00
36748;BME280;22716;51.556;5.080;2023-04-25T04:22:37;100525.53;;;6.60;100.00
36748;BME280;22716;51.556;5.080;2023-04-25T04:25:07;100524.66;;;6.58;100.00
36748;BME280;22716;51.556;5.080;2023-04-25T04:27:37;100523.78;;;6.59;100.00
36748;BME280;22716;51.556;5.080;2023-04-25T04:30:08;100521.22;;;6.57;100.00
36748;BME280;22716;51.556;5.080;2023-04-25T04:32:37;100515.97;;;6.56;100.00
36748;BME280;22716;51.556;5.080;2023-04-25T04:35:08;100523.81;;;6.54;100.00
36748;BME280;22716;51.556;5.080;2023-04-25T04:37:37;100523.78;;;6.53;100.00
36748;BME280;22716;51.556;5.080;2023-04-25T04:40:07;100524.66;;;6.53;100.00
36748;BME280;22716;51.556;5.080;2023-04-25T04:42:37;100523.78;;;6.50;100.00
36748;BME280;22716;51.556;5.080;2023-04-25T04:45:08;100529.84;;;6.49;100.00
36748;BME280;22716;51.556;5.080;2023-04-25T04:47:37;100529.88;;;6.46;100.00
36748;BME280;22716;51.556;5.080;2023-04-25T04:50:09;100536.78;;;6.47;100.00
36748;BME280;22716;51.556;5.080;2023-04-25T04:52:39;100537.69;;;6.43;100.00
36748;BME280;22716;51.556;5.080;2023-04-25T04:55:08;100546.34;;;6.45;100.00
36748;BME280;22716;51.556;5.080;2023-04-25T04:57:37;100542.88;;;6.41;100.00
36748;BME280;22716;51.556;5.080;2023-04-25T05:00:08;100545.44;;;6.35;100.00
36748;BME280;22716;51.556;5.080;2023-04-25T05:02:37;100540.25;;;6.35;100.00
36748;BME280;22716;51.556;5.080;2023-04-25T05:05:09;100556.75;;;6.45;100.00
36748;BME280;22716;51.556;5.080;2023-04-25T05:07:38;100550.69;;;6.44;100.00
36748;BME280;22716;51.556;5.080;2023-04-25T05:10:08;100563.69;;;6.47;100.00
36748;BME280;22716;51.556;5.080;2023-04-25T05:12:37;100565.44;;;6.51;100.00
36748;BME280;22716;51.556;5.080;2023-04-25T05:15:07;100568.06;;;6.51;100.00
36748;BME280;22716;51.556;5.080;2023-04-25T05:17:35;100569.78;;;6.51;100.00
36748;BME280;22716;51.556;5.080;2023-04-25T05:20:06;100575.84;;;6.53;100.00
36748;BME280;22716;51.556;5.080;2023-04-25T05:22:37;100583.69;;;6.57;100.00
36748;BME280;22716;51.556;5.080;2023-04-25T05:25:08;100584.50;;;6.55;100.00
36748;BME280;22716;51.556;5.080;2023-04-25T05:27:37;100583.66;;;6.56;100.00
36748;BME280;22716;51.556;5.080;2023-04-25T05:30:08;100583.69;;;6.60;100.00
36748;BME280;22716;51.556;5.080;2023-04-25T05:32:37;100593.22;;;6.61;100.00
36748;BME280;22716;51.556;5.080;2023-04-25T05:35:07;100598.44;;;6.66;100.00
36748;BME280;22716;51.556;5.080;2023-04-25T05:37:39;100605.41;;;6.74;100.00
36748;BME280;22716;51.556;5.080;2023-04-25T05:40:09;100610.59;;;6.78;100.00
36748;BME280;22716;51.556;5.080;2023-04-25T05:42:37;100614.94;;;6.80;100.00
36748;BME280;22716;51.556;5.080;2023-04-25T05:45:07;100609.72;;;6.78;100.00
36748;BME280;22716;51.556;5.080;2023-04-25T05:47:36;100618.41;;;6.82;100.00
36748;BME280;22716;51.556;5.080;2023-04-25T05:50:07;100604.53;;;6.80;100.00
36748;BME280;22716;51.556;5.080;2023-04-25T05:52:39;100622.78;;;6.92;100.00
36748;BME280;22716;51.556;5.080;2023-04-25T05:55:09;100626.25;;;6.97;100.00
36748;BME280;22716;51.556;5.080;2023-04-25T05:57:38;100627.97;;;7.03;100.00
36748;BME280;22716;51.556;5.080;2023-04-25T06:00:09;100629.72;;;6.99;100.00
36748;BME280;22716;51.556;5.080;2023-04-25T06:02:38;100623.63;;;7.00;100.00
36748;BME280;22716;51.556;5.080;2023-04-25T06:05:08;100627.09;;;7.08;100.00
36748;BME280;22716;51.556;5.080;2023-04-25T06:07:39;100628.84;;;7.17;100.00
36748;BME280;22716;51.556;5.080;2023-04-25T06:10:09;100641.03;;;7.30;100.00
36748;BME280;22716;51.556;5.080;2023-04-25T06:12:38;100635.78;;;7.31;100.00
36748;BME280;22716;51.556;5.080;2023-04-25T06:15:08;100642.72;;;7.37;100.00
36748;BME280;22716;51.556;5.080;2023-04-25T06:17:37;100636.69;;;7.37;100.00
36748;BME280;22716;51.556;5.080;2023-04-25T06:20:08;100658.38;;;7.37;100.00
36748;BME280;22716;51.556;5.080;2023-04-25T06:22:40;100655.78;;;7.39;100.00
36748;BME280;22716;51.556;5.080;2023-04-25T06:25:09;100661.00;;;7.48;100.00
36748;BME280;22716;51.556;5.080;2023-04-25T06:27:38;100650.56;;;7.43;100.00
36748;BME280;22716;51.556;5.080;2023-04-25T06:30:08;100660.09;;;7.49;100.00
36748;BME280;22716;51.556;5.080;2023-04-25T06:32:37;100655.78;;;7.32;100.00
36748;BME280;22716;51.556;5.080;2023-04-25T06:35:07;100661.88;;;7.36;100.00
36748;BME280;22716;51.556;5.080;2023-04-25T06:37:36;100664.47;;;7.41;100.00
36748;BME280;22716;51.556;5.080;2023-04-25T06:40:09;100666.19;;;7.39;100.00
36748;BME280;22716;51.556;5.080;2023-04-25T06:42:38;100656.66;;;7.42;100.00
36748;BME280;22716;51.556;5.080;2023-04-25T06:45:09;100670.53;;;7.47;100.00
36748;BME280;22716;51.556;5.080;2023-04-25T06:47:38;100668.81;;;7.45;100.00
36748;BME280;22716;51.556;5.080;2023-04-25T06:50:08;100663.59;;;7.39;100.00
36748;BME280;22716;51.556;5.080;2023-04-25T06:52:37;100660.13;;;7.33;100.00
36748;BME280;22716;51.556;5.080;2023-04-25T06:55:09;100667.94;;;7.37;100.00
36748;BME280;22716;51.556;5.080;2023-04-25T06:57:38;100667.91;;;7.49;100.00
36748;BME280;22716;51.556;5.080;2023-04-25T07:00:08;100675.75;;;7.55;100.00
36748;BME280;22716;51.556;5.080;2023-04-25T07:02:39;100680.94;;;7.52;100.00
36748;BME280;22716;51.556;5.080;2023-04-25T07:05:09;100688.78;;;7.55;100.00
36748;BME280;22716;51.556;5.080;2023-04-25T07:07:38;100677.47;;;7.60;100.00
36748;BME280;22716;51.556;5.080;2023-04-25T07:10:09;100681.78;;;7.98;100.00
36748;BME280;22716;51.556;5.080;2023-04-25T07:12:38;100692.22;;;7.92;100.00
36748;BME280;22716;51.556;5.080;2023-04-25T07:15:08;100695.69;;;7.95;100.00
36748;BME280;22716;51.556;5.080;2023-04-25T07:17:37;100707.00;;;7.85;100.00
36748;BME280;22716;51.556;5.080;2023-04-25T07:20:07;100704.41;;;7.85;99.74
36748;BME280;22716;51.556;5.080;2023-04-25T07:22:37;100703.53;;;7.92;99.45
36748;BME280;22716;51.556;5.080;2023-04-25T07:25:09;100707.84;;;8.04;98.80
36748;BME280;22716;51.556;5.080;2023-04-25T07:27:38;100720.03;;;7.88;98.44
36748;BME280;22716;51.556;5.080;2023-04-25T07:30:08;100723.53;;;7.76;97.95
36748;BME280;22716;51.556;5.080;2023-04-25T07:32:38;100723.53;;;7.76;98.22
36748;BME280;22716;51.556;5.080;2023-04-25T07:35:08;100731.34;;;7.84;97.94
36748;BME280;22716;51.556;5.080;2023-04-25T07:37:37;100733.09;;;7.76;99.26
36748;BME280;22716;51.556;5.080;2023-04-25T07:40:10;100730.50;;;7.73;100.00
36748;BME280;22716;51.556;5.080;2023-04-25T07:42:41;100737.44;;;7.86;100.00
36748;BME280;22716;51.556;5.080;2023-04-25T07:45:10;100734.81;;;7.84;100.00
36748;BME280;22716;51.556;5.080;2023-04-25T07:47:39;100739.16;;;7.93;100.00
36748;BME280;22716;51.556;5.080;2023-04-25T07:50:09;100749.59;;;8.01;99.54
36748;BME280;22716;51.556;5.080;2023-04-25T07:52:38;100754.81;;;7.99;98.42
36748;BME280;22716;51.556;5.080;2023-04-25T07:55:10;100755.72;;;7.83;97.15
36748;BME280;22716;51.556;5.080;2023-04-25T07:57:40;100756.56;;;7.91;96.54
36748;BME280;22716;51.556;5.080;2023-04-25T08:00:10;100764.38;;;7.97;95.95
36748;BME280;22716;51.556;5.080;2023-04-25T08:02:40;100754.81;;;8.02;95.85
36748;BME280;22716;51.556;5.080;2023-04-25T08:05:09;100763.53;;;8.01;95.55
36748;BME280;22716;51.556;5.080;2023-04-25T08:07:39;100764.38;;;7.99;95.43
36748;BME280;22716;51.556;5.080;2023-04-25T08:10:12;100754.81;;;7.84;95.85
36748;BME280;22716;51.556;5.080;2023-04-25T08:12:40;100763.53;;;7.95;96.11
36748;BME280;22716;51.556;5.080;2023-04-25T08:15:10;100772.19;;;7.99;96.17
36748;BME280;22716;51.556;5.080;2023-04-25T08:17:39;100778.28;;;8.05;96.47
36748;BME280;22716;51.556;5.080;2023-04-25T08:20:11;100782.59;;;8.38;95.55
36748;BME280;22716;51.556;5.080;2023-04-25T08:22:40;100779.88;;;8.73;94.65
36748;BME280;22716;51.556;5.080;2023-04-25T08:25:11;100783.28;;;8.87;94.08
36748;BME280;22716;51.556;5.080;2023-04-25T08:27:40;100783.34;;;8.79;93.62
36748;BME280;22716;51.556;5.080;2023-04-25T08:30:10;100789.44;;;8.83;92.52
36748;BME280;22716;51.556;5.080;2023-04-25T08:32:38;100791.22;;;8.72;92.36
36748;BME280;22716;51.556;5.080;2023-04-25T08:35:08;100801.63;;;8.82;91.56
36748;BME280;22716;51.556;5.080;2023-04-25T08:37:36;100810.34;;;8.83;90.89
36748;BME280;22716;51.556;5.080;2023-04-25T08:40:13;100801.56;;;8.90;90.21
36748;BME280;22716;51.556;5.080;2023-04-25T08:42:42;100794.66;;;8.80;89.33
36748;BME280;22716;51.556;5.080;2023-04-25T08:45:11;100818.13;;;8.90;88.31
36748;BME280;22716;51.556;5.080;2023-04-25T08:47:40;100826.00;;;8.81;87.59
36748;BME280;22716;51.556;5.080;2023-04-25T08:50:11;100817.25;;;8.91;87.32
36748;BME280;22716;51.556;5.080;2023-04-25T08:52:44;100820.75;;;8.92;86.75
36748;BME280;22716;51.556;5.080;2023-04-25T08:55:16;100829.44;;;8.91;86.54
36748;BME280;22716;51.556;5.080;2023-04-25T08:57:47;100826.84;;;8.88;86.29
36748;BME280;22716;51.556;5.080;2023-04-25T09:00:17;100832.94;;;8.87;86.43
36748;BME280;22716;51.556;5.080;2023-04-25T09:02:47;100829.50;;;8.76;86.94
36748;BME280;22716;51.556;5.080;2023-04-25T09:05:16;100828.59;;;8.89;86.78
36748;BME280;22716;51.556;5.080;2023-04-25T09:07:45;100847.69;;;9.06;86.91
36748;BME280;22716;51.556;5.080;2023-04-25T09:10:16;100847.72;;;8.92;86.70
36748;BME280;22716;51.556;5.080;2023-04-25T09:13:02;100851.19;;;9.02;86.12
36748;BME280;22716;51.556;5.080;2023-04-25T09:15:32;100864.25;;;9.02;86.39
36748;BME280;22716;51.556;5.080;2023-04-25T09:18:01;100865.03;;;9.19;85.62
36748;BME280;22716;51.556;5.080;2023-04-25T09:20:30;100871.94;;;9.35;85.29
36748;BME280;22716;51.556;5.080;2023-04-25T09:23:03;100862.25;;;9.52;84.67
36748;BME280;22716;51.556;5.080;2023-04-25T09:25:38;100866.56;;;9.66;83.32
36748;BME280;22716;51.556;5.080;2023-04-25T09:28:10;100875.28;;;9.65;81.92
36748;BME280;22716;51.556;5.080;2023-04-25T09:30:39;100876.97;;;9.73;81.69
36748;BME280;22716;51.556;5.080;2023-04-25T09:33:10;100869.94;;;9.83;81.12
36748;BME280;22716;51.556;5.080;2023-04-25T09:35:42;100873.16;;;10.20;80.25
36748;BME280;22716;51.556;5.080;2023-04-25T09:38:12;100865.16;;;10.35;79.59
36748;BME280;22716;51.556;5.080;2023-04-25T09:40:47;100877.38;;;10.34;78.89
36748;BME280;22716;51.556;5.080;2023-04-25T09:43:19;100870.38;;;10.36;78.10
36748;BME280;22716;51.556;5.080;2023-04-25T09:45:49;100875.59;;;10.36;77.00
36748;BME280;22716;51.556;5.080;2023-04-25T09:48:19;100871.94;;;10.55;77.17
36748;BME280;22716;51.556;5.080;2023-04-25T09:51:04;100881.53;;;10.58;76.57
36748;BME280;22716;51.556;5.080;2023-04-25T09:53:33;100877.44;;;10.28;75.92
36748;BME280;22716;51.556;5.080;2023-04-25T09:56:07;100880.97;;;10.23;75.47
36748;BME280;22716;51.556;5.080;2023-04-25T09:58:39;100876.63;;;10.19;74.76
36748;BME280;22716;51.556;5.080;2023-04-25T10:01:10;100876.69;;;10.14;74.00
36748;BME280;22716;51.556;5.080;2023-04-25T10:03:39;100874.94;;;10.07;73.81
36748;BME280;22716;51.556;5.080;2023-04-25T10:06:12;100873.22;;;10.04;74.24
36748;BME280;22716;51.556;5.080;2023-04-25T10:08:41;100889.91;;;9.90;74.87
36748;BME280;22716;51.556;5.080;2023-04-25T10:11:15;100890.00;;;9.78;74.90
36748;BME280;22716;51.556;5.080;2023-04-25T10:13:45;100887.47;;;9.69;75.46
36748;BME280;22716;51.556;5.080;2023-04-25T10:16:14;100891.81;;;9.67;75.97
36748;BME280;22716;51.556;5.080;2023-04-25T10:18:43;100899.63;;;9.76;75.96
36748;BME280;22716;51.556;5.080;2023-04-25T10:21:12;100901.38;;;9.69;74.25
36748;BME280;22716;51.556;5.080;2023-04-25T10:23:44;100904.91;;;9.64;73.42
36748;BME280;22716;51.556;5.080;2023-04-25T10:26:16;100907.50;;;9.67;72.76
36748;BME280;22716;51.556;5.080;2023-04-25T10:28:55;100907.53;;;9.65;72.72
36748;BME280;22716;51.556;5.080;2023-04-25T10:31:25;100906.59;;;9.75;72.37
36748;BME280;22716;51.556;5.080;2023-04-25T10:33:54;100908.31;;;9.78;71.98
36748;BME280;22716;51.556;5.080;2023-04-25T10:36:23;100914.38;;;9.84;72.08
36748;BME280;22716;51.556;5.080;2023-04-25T10:38:53;100913.47;;;9.90;72.10
36748;BME280;22716;51.556;5.080;2023-04-25T10:41:27;100915.13;;;10.06;72.03
36748;BME280;22716;51.556;5.080;2023-04-25T10:43:59;100920.31;;;10.13;72.23
36748;BME280;22716;51.556;5.080;2023-04-25T10:46:30;100914.28;;;10.01;71.76
36748;BME280;22716;51.556;5.080;2023-04-25T10:49:02;100910.72;;;10.11;71.77
36748;BME280;22716;51.556;5.080;2023-04-25T10:51:32;100903.72;;;10.10;71.84
36748;BME280;22716;51.556;5.080;2023-04-25T10:54:02;100918.66;;;10.00;72.56
36748;BME280;22716;51.556;5.080;2023-04-25T10:56:37;100922.19;;;9.95;74.23
36748;BME280;22716;51.556;5.080;2023-04-25T10:59:11;100917.03;;;9.83;76.45
36748;BME280;22716;51.556;5.080;2023-04-25T11:01:42;100918.72;;;9.88;77.12
36748;BME280;22716;51.556;5.080;2023-04-25T11:04:21;100920.44;;;9.89;77.59
36748;BME280;22716;51.556;5.080;2023-04-25T11:07:05;100925.66;;;9.94;77.80
36748;BME280;22716;51.556;5.080;2023-04-25T11:09:38;100919.53;;;9.99;77.19
36748;BME280;22716;51.556;5.080;2023-04-25T11:12:10;100927.31;;;10.08;76.83
36748;BME280;22716;51.556;5.080;2023-04-25T11:14:40;100928.19;;;10.04;77.80
36748;BME280;22716;51.556;5.080;2023-04-25T11:17:09;100921.38;;;9.82;78.80
36748;BME280;22716;51.556;5.080;2023-04-25T11:19:38;100937.13;;;9.72;80.78
36748;BME280;22716;51.556;5.080;2023-04-25T11:22:07;100932.91;;;9.51;83.24
36748;BME280;22716;51.556;5.080;2023-04-25T11:24:36;100943.44;;;9.31;86.27
36748;BME280;22716;51.556;5.080;2023-04-25T11:27:05;100939.09;;;9.29;87.76
36748;BME280;22716;51.556;5.080;2023-04-25T11:29:36;100934.78;;;9.17;88.34
36748;BME280;22716;51.556;5.080;2023-04-25T11:32:05;100943.47;;;9.16;89.18
36748;BME280;22716;51.556;5.080;2023-04-25T11:34:34;100944.38;;;9.15;88.92
36748;BME280;22716;51.556;5.080;2023-04-25T11:37:03;100934.78;;;9.14;88.76
36748;BME280;22716;51.556;5.080;2023-04-25T11:39:33;100942.63;;;9.11;88.21
36748;BME280;22716;51.556;5.080;2023-04-25T11:42:01;100942.63;;;9.14;87.58
36748;BME280;22716;51.556;5.080;2023-04-25T11:44:32;100946.06;;;9.25;86.88
36748;BME280;22716;51.556;5.080;2023-04-25T11:47:04;100934.69;;;9.34;86.98
36748;BME280;22716;51.556;5.080;2023-04-25T11:49:32;100940.81;;;9.28;85.31
36748;BME280;22716;51.556;5.080;2023-04-25T11:52:01;100939.91;;;9.44;84.28
36748;BME280;22716;51.556;5.080;2023-04-25T11:54:30;100941.56;;;9.65;82.95
36748;BME280;22716;51.556;5.080;2023-04-25T11:56:59;100925.72;;;9.88;81.37
36748;BME280;22716;51.556;5.080;2023-04-25T11:59:27;100932.47;;;10.22;79.41
36748;BME280;22716;51.556;5.080;2023-04-25T12:01:56;100933.09;;;10.51;76.48
36748;BME280;22716;51.556;5.080;2023-04-25T12:04:30;100943.31;;;10.82;74.67
36748;BME280;22716;51.556;5.080;2023-04-25T12:07:00;100899.88;;;10.59;72.66
36748;BME280;22716;51.556;5.080;2023-04-25T12:09:31;100946.13;;;10.62;73.85
36748;BME280;22716;51.556;5.080;2023-04-25T12:12:01;100953.16;;;10.58;74.34
36748;BME280;22716;51.556;5.080;2023-04-25T12:14:33;100956.66;;;10.54;74.09
36748;BME280;22716;51.556;5.080;2023-04-25T12:17:04;100953.31;;;10.39;73.25
36748;BME280;22716;51.556;5.080;2023-04-25T12:19:37;100959.59;;;10.15;72.59
36748;BME280;22716;51.556;5.080;2023-04-25T12:22:19;100988.34;;;10.20;72.79
36748;BME280;22716;51.556;5.080;2023-04-25T12:24:49;100977.13;;;10.01;72.75
36748;BME280;22716;51.556;5.080;2023-04-25T12:27:19;100979.84;;;9.83;72.94
36748;BME280;22716;51.556;5.080;2023-04-25T12:29:52;100981.56;;;9.78;73.60
36748;BME280;22716;51.556;5.080;2023-04-25T12:32:22;100966.81;;;9.68;73.61
36748;BME280;22716;51.556;5.080;2023-04-25T12:34:54;100985.97;;;9.77;74.18
36748;BME280;22716;51.556;5.080;2023-04-25T12:37:22;100979.84;;;9.78;74.16
36748;BME280;22716;51.556;5.080;2023-04-25T12:39:51;100987.59;;;9.98;74.23
36748;BME280;22716;51.556;5.080;2023-04-25T12:42:20;100978.78;;;10.17;73.24
36748;BME280;22716;51.556;5.080;2023-04-25T12:44:49;100979.41;;;10.49;71.88
36748;BME280;22716;51.556;5.080;2023-04-25T12:47:18;100979.38;;;10.52;70.76
36748;BME280;22716;51.556;5.080;2023-04-25T12:49:47;100987.19;;;10.57;70.16
36748;BME280;22716;51.556;5.080;2023-04-25T12:52:18;100973.00;;;10.84;67.86
36748;BME280;22716;51.556;5.080;2023-04-25T12:54:47;100974.44;;;11.15;65.60
36748;BME280;22716;51.556;5.080;2023-04-25T12:57:16;100977.81;;;11.24;64.70
36748;BME280;22716;51.556;5.080;2023-04-25T12:59:45;100992.88;;;11.06;63.94
36748;BME280;22716;51.556;5.080;2023-04-25T13:02:13;100977.34;;;10.88;65.14
36748;BME280;22716;51.556;5.080;2023-04-25T13:04:42;100983.72;;;10.56;67.71
36748;BME280;22716;51.556;5.080;2023-04-25T13:07:11;100986.41;;;10.49;69.60